sensor_id;sensor_type;location;lat;lon;timestamp;P1;durP1;ratioP1;P2;durP2;ratioP2
45318;SDS011;31057;48.498;32.260;2023-04-15T00:03:25;12.85;;;11.55;;
45318;SDS011;31057;48.498;32.260;2023-04-15T00:05:29;11.88;;;10.63;;
45318;SDS011;31057;48.498;32.260;2023-04-15T00:07:31;18.73;;;11.77;;
45318;SDS011;31057;48.498;32.260;2023-04-15T00:11:35;14.48;;;11.38;;
45318;SDS011;31057;48.498;32.260;2023-04-15T00:13:38;11.77;;;8.50;;
45318;SDS011;31057;48.498;32.260;2023-04-15T00:15:40;11.60;;;10.40;;
45318;SDS011;31057;48.498;32.260;2023-04-15T00:17:42;17.35;;;10.90;;
45318;SDS011;31057;48.498;32.260;2023-04-15T00:19:44;13.38;;;9.73;;
45318;SDS011;31057;48.498;32.260;2023-04-15T00:21:46;10.80;;;9.60;;
45318;SDS011;31057;48.498;32.260;2023-04-15T00:23:48;11.80;;;9.75;;
45318;SDS011;31057;48.498;32.260;2023-04-15T00:25:52;11.07;;;8.45;;
45318;SDS011;31057;48.498;32.260;2023-04-15T00:27:55;8.85;;;7.80;;
45318;SDS011;31057;48.498;32.260;2023-04-15T00:29:56;10.02;;;8.32;;
45318;SDS011;31057;48.498;32.260;2023-04-15T00:31:58;9.07;;;7.68;;
45318;SDS011;31057;48.498;32.260;2023-04-15T00:34:00;11.90;;;7.57;;
45318;SDS011;31057;48.498;32.260;2023-04-15T00:36:05;8.93;;;6.40;;
45318;SDS011;31057;48.498;32.260;2023-04-15T00:38:08;9.32;;;6.80;;
45318;SDS011;31057;48.498;32.260;2023-04-15T00:40:11;9.43;;;7.43;;
45318;SDS011;31057;48.498;32.260;2023-04-15T00:42:14;12.55;;;8.57;;
45318;SDS011;31057;48.498;32.260;2023-04-15T00:44:16;9.88;;;6.80;;
45318;SDS011;31057;48.498;32.260;2023-04-15T00:46:19;8.73;;;7.18;;
45318;SDS011;31057;48.498;32.260;2023-04-15T00:48:22;10.93;;;7.57;;
45318;SDS011;31057;48.498;32.260;2023-04-15T00:50:26;9.40;;;6.97;;
45318;SDS011;31057;48.498;32.260;2023-04-15T00:52:28;8.43;;;7.00;;
45318;SDS011;31057;48.498;32.260;2023-04-15T00:54:30;7.97;;;7.18;;
45318;SDS011;31057;48.498;32.260;2023-04-15T00:56:34;8.02;;;6.38;;
45318;SDS011;31057;48.498;32.260;2023-04-15T00:58:38;8.38;;;6.85;;
45318;SDS011;31057;48.498;32.260;2023-04-15T01:02:43;7.70;;;6.70;;
45318;SDS011;31057;48.498;32.260;2023-04-15T01:04:45;9.98;;;6.90;;
45318;SDS011;31057;48.498;32.260;2023-04-15T01:08:49;7.80;;;6.77;;
45318;SDS011;31057;48.498;32.260;2023-04-15T01:10:51;8.27;;;5.70;;
45318;SDS011;31057;48.498;32.260;2023-04-15T01:12:54;10.38;;;5.90;;
45318;SDS011;31057;48.498;32.260;2023-04-15T01:14:57;7.93;;;5.10;;
45318;SDS011;31057;48.498;32.260;2023-04-15T01:17:00;9.02;;;6.13;;
45318;SDS011;31057;48.498;32.260;2023-04-15T01:21:04;9.27;;;5.40;;
45318;SDS011;31057;48.498;32.260;2023-04-15T01:23:07;6.82;;;4.88;;
45318;SDS011;31057;48.498;32.260;2023-04-15T01:25:14;5.85;;;5.00;;
45318;SDS011;31057;48.498;32.260;2023-04-15T01:27:20;7.78;;;4.40;;
45318;SDS011;31057;48.498;32.260;2023-04-15T01:29:22;5.00;;;4.50;;
45318;SDS011;31057;48.498;32.260;2023-04-15T01:31:24;6.65;;;4.80;;
45318;SDS011;31057;48.498;32.260;2023-04-15T01:33:26;5.78;;;4.82;;
45318;SDS011;31057;48.498;32.260;2023-04-15T01:35:28;9.00;;;5.60;;
45318;SDS011;31057;48.498;32.260;2023-04-15T01:37:30;10.73;;;6.03;;
45318;SDS011;31057;48.498;32.260;2023-04-15T01:39:32;6.10;;;4.93;;
45318;SDS011;31057;48.498;32.260;2023-04-15T01:41:34;7.47;;;4.70;;
45318;SDS011;31057;48.498;32.260;2023-04-15T01:43:36;7.03;;;5.03;;
45318;SDS011;31057;48.498;32.260;2023-04-15T01:45:38;8.30;;;5.18;;
45318;SDS011;31057;48.498;32.260;2023-04-15T01:47:40;9.75;;;4.75;;
45318;SDS011;31057;48.498;32.260;2023-04-15T01:49:42;9.05;;;5.85;;
45318;SDS011;31057;48.498;32.260;2023-04-15T01:51:44;9.73;;;6.28;;
45318;SDS011;31057;48.498;32.260;2023-04-15T01:53:46;13.05;;;5.85;;
45318;SDS011;31057;48.498;32.260;2023-04-15T01:55:47;9.10;;;6.15;;
45318;SDS011;31057;48.498;32.260;2023-04-15T01:57:49;9.80;;;7.03;;
45318;SDS011;31057;48.498;32.260;2023-04-15T01:59:52;10.25;;;7.07;;
45318;SDS011;31057;48.498;32.260;2023-04-15T02:01:54;8.98;;;6.68;;
45318;SDS011;31057;48.498;32.260;2023-04-15T02:03:56;11.82;;;7.10;;
45318;SDS011;31057;48.498;32.260;2023-04-15T02:05:58;8.40;;;6.70;;
45318;SDS011;31057;48.498;32.260;2023-04-15T02:08:00;8.07;;;6.10;;
45318;SDS011;31057;48.498;32.260;2023-04-15T02:10:02;7.72;;;6.38;;
45318;SDS011;31057;48.498;32.260;2023-04-15T02:14:07;7.22;;;5.68;;
45318;SDS011;31057;48.498;32.260;2023-04-15T02:16:18;12.90;;;5.72;;
45318;SDS011;31057;48.498;32.260;2023-04-15T02:18:20;14.65;;;7.93;;
45318;SDS011;31057;48.498;32.260;2023-04-15T02:20:22;12.05;;;7.82;;
45318;SDS011;31057;48.498;32.260;2023-04-15T02:22:24;11.82;;;8.18;;
45318;SDS011;31057;48.498;32.260;2023-04-15T02:26:31;9.98;;;7.43;;
45318;SDS011;31057;48.498;32.260;2023-04-15T02:28:33;11.27;;;7.13;;
45318;SDS011;31057;48.498;32.260;2023-04-15T02:30:36;8.25;;;6.32;;
45318;SDS011;31057;48.498;32.260;2023-04-15T02:32:38;7.30;;;5.88;;
45318;SDS011;31057;48.498;32.260;2023-04-15T02:34:41;7.70;;;5.50;;
45318;SDS011;31057;48.498;32.260;2023-04-15T02:36:43;8.55;;;6.75;;
45318;SDS011;31057;48.498;32.260;2023-04-15T02:38:45;9.05;;;6.72;;
45318;SDS011;31057;48.498;32.260;2023-04-15T02:40:47;9.15;;;7.45;;
45318;SDS011;31057;48.498;32.260;2023-04-15T02:42:50;11.32;;;7.57;;
45318;SDS011;31057;48.498;32.260;2023-04-15T02:44:52;12.50;;;7.32;;
45318;SDS011;31057;48.498;32.260;2023-04-15T02:46:55;8.02;;;5.75;;
45318;SDS011;31057;48.498;32.260;2023-04-15T02:48:58;6.80;;;5.93;;
45318;SDS011;31057;48.498;32.260;2023-04-15T02:51:17;8.85;;;6.05;;
45318;SDS011;31057;48.498;32.260;2023-04-15T02:53:20;8.05;;;5.50;;
45318;SDS011;31057;48.498;32.260;2023-04-15T02:55:23;7.10;;;5.85;;
45318;SDS011;31057;48.498;32.260;2023-04-15T02:57:25;9.13;;;6.22;;
45318;SDS011;31057;48.498;32.260;2023-04-15T02:59:29;7.65;;;5.82;;
45318;SDS011;31057;48.498;32.260;2023-04-15T03:01:31;7.95;;;6.47;;
45318;SDS011;31057;48.498;32.260;2023-04-15T03:03:33;9.43;;;7.03;;
45318;SDS011;31057;48.498;32.260;2023-04-15T03:05:35;7.78;;;5.85;;
45318;SDS011;31057;48.498;32.260;2023-04-15T03:07:39;6.82;;;5.40;;
45318;SDS011;31057;48.498;32.260;2023-04-15T03:09:41;7.47;;;6.68;;
45318;SDS011;31057;48.498;32.260;2023-04-15T03:11:43;8.10;;;6.35;;
45318;SDS011;31057;48.498;32.260;2023-04-15T03:13:45;6.97;;;6.18;;
45318;SDS011;31057;48.498;32.260;2023-04-15T03:15:47;9.35;;;5.50;;
45318;SDS011;31057;48.498;32.260;2023-04-15T03:17:49;7.50;;;5.57;;
45318;SDS011;31057;48.498;32.260;2023-04-15T03:19:51;8.07;;;5.38;;
45318;SDS011;31057;48.498;32.260;2023-04-15T03:21:53;8.68;;;6.63;;
45318;SDS011;31057;48.498;32.260;2023-04-15T03:23:55;9.52;;;7.32;;
45318;SDS011;31057;48.498;32.260;2023-04-15T03:26:00;11.82;;;8.20;;
45318;SDS011;31057;48.498;32.260;2023-04-15T03:28:02;10.77;;;8.88;;
45318;SDS011;31057;48.498;32.260;2023-04-15T03:30:05;12.32;;;9.18;;
45318;SDS011;31057;48.498;32.260;2023-04-15T03:32:08;11.32;;;6.57;;
45318;SDS011;31057;48.498;32.260;2023-04-15T03:34:09;8.20;;;7.07;;
45318;SDS011;31057;48.498;32.260;2023-04-15T03:36:11;11.15;;;8.32;;
45318;SDS011;31057;48.498;32.260;2023-04-15T03:38:13;9.05;;;7.53;;
45318;SDS011;31057;48.498;32.260;2023-04-15T03:42:18;8.73;;;5.55;;
45318;SDS011;31057;48.498;32.260;2023-04-15T03:44:20;7.97;;;6.15;;
45318;SDS011;31057;48.498;32.260;2023-04-15T03:46:22;8.93;;;6.18;;
45318;SDS011;31057;48.498;32.260;2023-04-15T03:50:26;8.60;;;5.72;;
45318;SDS011;31057;48.498;32.260;2023-04-15T03:52:28;9.30;;;6.00;;
45318;SDS011;31057;48.498;32.260;2023-04-15T03:56:32;10.93;;;7.00;;
45318;SDS011;31057;48.498;32.260;2023-04-15T03:58:34;11.18;;;6.85;;
45318;SDS011;31057;48.498;32.260;2023-04-15T04:00:36;11.77;;;6.60;;
45318;SDS011;31057;48.498;32.260;2023-04-15T04:02:38;10.60;;;6.32;;
45318;SDS011;31057;48.498;32.260;2023-04-15T04:06:41;7.85;;;4.68;;
45318;SDS011;31057;48.498;32.260;2023-04-15T04:08:44;7.22;;;4.78;;
45318;SDS011;31057;48.498;32.260;2023-04-15T04:10:46;9.75;;;5.57;;
45318;SDS011;31057;48.498;32.260;2023-04-15T04:12:48;9.65;;;4.50;;
45318;SDS011;31057;48.498;32.260;2023-04-15T04:14:49;8.63;;;4.88;;
45318;SDS011;31057;48.498;32.260;2023-04-15T04:16:51;9.38;;;4.95;;
45318;SDS011;31057;48.498;32.260;2023-04-15T04:18:53;7.75;;;5.25;;
45318;SDS011;31057;48.498;32.260;2023-04-15T04:20:55;7.53;;;5.57;;
45318;SDS011;31057;48.498;32.260;2023-04-15T04:22:57;8.45;;;5.18;;
45318;SDS011;31057;48.498;32.260;2023-04-15T04:24:59;7.65;;;5.20;;
45318;SDS011;31057;48.498;32.260;2023-04-15T04:27:02;5.68;;;4.60;;
45318;SDS011;31057;48.498;32.260;2023-04-15T04:29:04;7.03;;;4.40;;
45318;SDS011;31057;48.498;32.260;2023-04-15T04:33:08;8.30;;;4.80;;
45318;SDS011;31057;48.498;32.260;2023-04-15T04:37:12;5.43;;;4.40;;
45318;SDS011;31057;48.498;32.260;2023-04-15T04:39:14;5.45;;;3.65;;
45318;SDS011;31057;48.498;32.260;2023-04-15T04:41:16;6.40;;;4.03;;
45318;SDS011;31057;48.498;32.260;2023-04-15T04:43:18;7.82;;;4.40;;
45318;SDS011;31057;48.498;32.260;2023-04-15T04:45:20;7.68;;;5.00;;
45318;SDS011;31057;48.498;32.260;2023-04-15T04:47:22;5.72;;;4.13;;
45318;SDS011;31057;48.498;32.260;2023-04-15T04:49:24;5.80;;;4.65;;
45318;SDS011;31057;48.498;32.260;2023-04-15T04:51:26;6.35;;;4.68;;
45318;SDS011;31057;48.498;32.260;2023-04-15T04:53:28;8.70;;;4.38;;
45318;SDS011;31057;48.498;32.260;2023-04-15T04:55:30;10.80;;;5.45;;
45318;SDS011;31057;48.498;32.260;2023-04-15T04:59:36;12.15;;;6.28;;
45318;SDS011;31057;48.498;32.260;2023-04-15T05:03:40;7.47;;;6.53;;
45318;SDS011;31057;48.498;32.260;2023-04-15T05:05:42;8.90;;;5.70;;
45318;SDS011;31057;48.498;32.260;2023-04-15T05:07:44;8.50;;;5.53;;
45318;SDS011;31057;48.498;32.260;2023-04-15T05:11:48;7.73;;;5.03;;
45318;SDS011;31057;48.498;32.260;2023-04-15T05:13:49;8.60;;;5.28;;
45318;SDS011;31057;48.498;32.260;2023-04-15T05:15:51;10.60;;;6.63;;
45318;SDS011;31057;48.498;32.260;2023-04-15T05:17:53;10.63;;;6.38;;
45318;SDS011;31057;48.498;32.260;2023-04-15T05:19:55;8.80;;;4.88;;
45318;SDS011;31057;48.498;32.260;2023-04-15T05:21:57;8.55;;;5.75;;
45318;SDS011;31057;48.498;32.260;2023-04-15T05:23:59;7.13;;;5.22;;
45318;SDS011;31057;48.498;32.260;2023-04-15T05:26:01;10.82;;;5.57;;
45318;SDS011;31057;48.498;32.260;2023-04-15T05:28:03;7.45;;;5.43;;
45318;SDS011;31057;48.498;32.260;2023-04-15T05:32:07;7.80;;;5.90;;
45318;SDS011;31057;48.498;32.260;2023-04-15T05:34:09;8.07;;;6.65;;
45318;SDS011;31057;48.498;32.260;2023-04-15T05:36:12;11.20;;;7.47;;
45318;SDS011;31057;48.498;32.260;2023-04-15T05:38:14;11.95;;;8.80;;
45318;SDS011;31057;48.498;32.260;2023-04-15T05:40:16;11.43;;;7.80;;
45318;SDS011;31057;48.498;32.260;2023-04-15T05:42:19;12.35;;;9.07;;
45318;SDS011;31057;48.498;32.260;2023-04-15T05:44:21;12.88;;;9.20;;
45318;SDS011;31057;48.498;32.260;2023-04-15T05:46:23;12.27;;;9.45;;
45318;SDS011;31057;48.498;32.260;2023-04-15T05:48:25;13.95;;;11.45;;
45318;SDS011;31057;48.498;32.260;2023-04-15T05:50:26;13.90;;;11.73;;
45318;SDS011;31057;48.498;32.260;2023-04-15T05:52:28;14.23;;;10.80;;
45318;SDS011;31057;48.498;32.260;2023-04-15T05:54:31;14.05;;;11.05;;
45318;SDS011;31057;48.498;32.260;2023-04-15T05:56:33;16.10;;;11.15;;
45318;SDS011;31057;48.498;32.260;2023-04-15T06:00:37;15.20;;;10.03;;
45318;SDS011;31057;48.498;32.260;2023-04-15T06:06:44;13.75;;;10.32;;
45318;SDS011;31057;48.498;32.260;2023-04-15T06:08:46;19.30;;;12.60;;
45318;SDS011;31057;48.498;32.260;2023-04-15T06:10:48;14.35;;;12.00;;
45318;SDS011;31057;48.498;32.260;2023-04-15T06:12:51;14.40;;;11.23;;
45318;SDS011;31057;48.498;32.260;2023-04-15T06:14:53;14.65;;;11.20;;
45318;SDS011;31057;48.498;32.260;2023-04-15T06:18:57;13.38;;;10.90;;
45318;SDS011;31057;48.498;32.260;2023-04-15T06:23:01;12.85;;;10.93;;
45318;SDS011;31057;48.498;32.260;2023-04-15T06:25:03;15.77;;;12.35;;
45318;SDS011;31057;48.498;32.260;2023-04-15T06:27:05;16.75;;;11.23;;
45318;SDS011;31057;48.498;32.260;2023-04-15T06:29:07;16.63;;;12.07;;
45318;SDS011;31057;48.498;32.260;2023-04-15T06:31:09;13.48;;;11.13;;
45318;SDS011;31057;48.498;32.260;2023-04-15T06:33:11;19.63;;;12.48;;
45318;SDS011;31057;48.498;32.260;2023-04-15T06:35:13;15.93;;;13.38;;
45318;SDS011;31057;48.498;32.260;2023-04-15T06:37:16;17.02;;;12.55;;
45318;SDS011;31057;48.498;32.260;2023-04-15T06:39:18;19.95;;;13.07;;
45318;SDS011;31057;48.498;32.260;2023-04-15T06:41:19;19.05;;;14.18;;
45318;SDS011;31057;48.498;32.260;2023-04-15T06:43:21;17.90;;;12.10;;
45318;SDS011;31057;48.498;32.260;2023-04-15T06:45:23;17.02;;;13.32;;
45318;SDS011;31057;48.498;32.260;2023-04-15T06:47:25;20.48;;;14.35;;
45318;SDS011;31057;48.498;32.260;2023-04-15T06:49:27;18.67;;;13.35;;
45318;SDS011;31057;48.498;32.260;2023-04-15T06:53:31;16.48;;;12.63;;
45318;SDS011;31057;48.498;32.260;2023-04-15T06:57:35;18.23;;;12.90;;
45318;SDS011;31057;48.498;32.260;2023-04-15T06:59:37;17.02;;;12.60;;
45318;SDS011;31057;48.498;32.260;2023-04-15T07:01:39;19.10;;;14.05;;
45318;SDS011;31057;48.498;32.260;2023-04-15T07:03:42;20.15;;;13.95;;
45318;SDS011;31057;48.498;32.260;2023-04-15T07:07:46;18.03;;;14.50;;
45318;SDS011;31057;48.498;32.260;2023-04-15T07:09:47;20.13;;;13.70;;
45318;SDS011;31057;48.498;32.260;2023-04-15T07:13:52;19.13;;;13.00;;
45318;SDS011;31057;48.498;32.260;2023-04-15T07:15:54;18.63;;;13.30;;
45318;SDS011;31057;48.498;32.260;2023-04-15T07:17:57;17.25;;;12.77;;
45318;SDS011;31057;48.498;32.260;2023-04-15T07:19:59;20.30;;;14.70;;
45318;SDS011;31057;48.498;32.260;2023-04-15T07:22:00;18.55;;;14.20;;
45318;SDS011;31057;48.498;32.260;2023-04-15T07:24:02;21.58;;;16.23;;
45318;SDS011;31057;48.498;32.260;2023-04-15T07:28:06;21.35;;;15.88;;
45318;SDS011;31057;48.498;32.260;2023-04-15T07:30:08;21.83;;;15.43;;
45318;SDS011;31057;48.498;32.260;2023-04-15T07:32:11;18.40;;;14.73;;
45318;SDS011;31057;48.498;32.260;2023-04-15T07:34:13;17.65;;;13.85;;
45318;SDS011;31057;48.498;32.260;2023-04-15T07:36:15;17.58;;;14.80;;
45318;SDS011;31057;48.498;32.260;2023-04-15T07:38:17;15.80;;;12.48;;
45318;SDS011;31057;48.498;32.260;2023-04-15T07:40:19;11.40;;;9.90;;
45318;SDS011;31057;48.498;32.260;2023-04-15T07:42:21;12.45;;;9.95;;
45318;SDS011;31057;48.498;32.260;2023-04-15T07:44:23;14.48;;;11.25;;
45318;SDS011;31057;48.498;32.260;2023-04-15T07:46:25;14.60;;;9.15;;
45318;SDS011;31057;48.498;32.260;2023-04-15T07:48:30;13.40;;;8.60;;
45318;SDS011;31057;48.498;32.260;2023-04-15T07:50:32;10.90;;;8.00;;
45318;SDS011;31057;48.498;32.260;2023-04-15T07:52:34;8.60;;;7.15;;
45318;SDS011;31057;48.498;32.260;2023-04-15T07:54:39;8.18;;;6.90;;
45318;SDS011;31057;48.498;32.260;2023-04-15T07:56:41;8.25;;;6.90;;
45318;SDS011;31057;48.498;32.260;2023-04-15T07:58:43;6.53;;;4.68;;
45318;SDS011;31057;48.498;32.260;2023-04-15T08:00:45;10.27;;;5.38;;
45318;SDS011;31057;48.498;32.260;2023-04-15T08:02:47;8.70;;;5.50;;
45318;SDS011;31057;48.498;32.260;2023-04-15T08:04:50;11.15;;;5.68;;
45318;SDS011;31057;48.498;32.260;2023-04-15T08:06:52;8.18;;;6.43;;
45318;SDS011;31057;48.498;32.260;2023-04-15T08:08:54;11.55;;;6.05;;
45318;SDS011;31057;48.498;32.260;2023-04-15T08:10:57;8.65;;;6.70;;
45318;SDS011;31057;48.498;32.260;2023-04-15T08:15:01;5.50;;;4.68;;
45318;SDS011;31057;48.498;32.260;2023-04-15T08:19:05;4.60;;;4.13;;
45318;SDS011;31057;48.498;32.260;2023-04-15T08:21:07;7.45;;;4.70;;
45318;SDS011;31057;48.498;32.260;2023-04-15T08:23:10;8.07;;;5.13;;
45318;SDS011;31057;48.498;32.260;2023-04-15T08:25:12;7.60;;;4.97;;
45318;SDS011;31057;48.498;32.260;2023-04-15T08:27:14;6.20;;;4.97;;
45318;SDS011;31057;48.498;32.260;2023-04-15T08:29:16;12.07;;;5.45;;
45318;SDS011;31057;48.498;32.260;2023-04-15T08:31:18;6.43;;;4.93;;
45318;SDS011;31057;48.498;32.260;2023-04-15T08:33:21;6.85;;;4.88;;
45318;SDS011;31057;48.498;32.260;2023-04-15T08:35:23;9.00;;;5.60;;
45318;SDS011;31057;48.498;32.260;2023-04-15T08:37:25;6.22;;;4.70;;
45318;SDS011;31057;48.498;32.260;2023-04-15T08:41:31;5.57;;;3.90;;
45318;SDS011;31057;48.498;32.260;2023-04-15T08:43:43;7.53;;;4.53;;
45318;SDS011;31057;48.498;32.260;2023-04-15T08:45:52;7.30;;;4.53;;
45318;SDS011;31057;48.498;32.260;2023-04-15T08:47:54;4.60;;;3.85;;
45318;SDS011;31057;48.498;32.260;2023-04-15T08:49:57;7.32;;;4.35;;
45318;SDS011;31057;48.498;32.260;2023-04-15T08:52:01;6.72;;;4.78;;
45318;SDS011;31057;48.498;32.260;2023-04-15T08:54:04;7.18;;;4.57;;
45318;SDS011;31057;48.498;32.260;2023-04-15T08:56:07;9.15;;;3.92;;
45318;SDS011;31057;48.498;32.260;2023-04-15T08:58:12;9.25;;;5.25;;
45318;SDS011;31057;48.498;32.260;2023-04-15T09:00:14;4.10;;;3.60;;
45318;SDS011;31057;48.498;32.260;2023-04-15T09:02:17;6.05;;;4.13;;
45318;SDS011;31057;48.498;32.260;2023-04-15T09:04:20;5.70;;;4.90;;
45318;SDS011;31057;48.498;32.260;2023-04-15T09:06:22;7.03;;;4.13;;
45318;SDS011;31057;48.498;32.260;2023-04-15T09:10:26;7.15;;;4.63;;
45318;SDS011;31057;48.498;32.260;2023-04-15T09:12:29;9.95;;;4.35;;
45318;SDS011;31057;48.498;32.260;2023-04-15T09:14:32;6.65;;;5.20;;
45318;SDS011;31057;48.498;32.260;2023-04-15T09:19:19;9.60;;;5.93;;
45318;SDS011;31057;48.498;32.260;2023-04-15T09:21:22;10.63;;;8.48;;
45318;SDS011;31057;48.498;32.260;2023-04-15T09:23:25;9.35;;;8.45;;
45318;SDS011;31057;48.498;32.260;2023-04-15T09:25:29;7.55;;;6.53;;
45318;SDS011;31057;48.498;32.260;2023-04-15T09:27:35;6.63;;;5.95;;
45318;SDS011;31057;48.498;32.260;2023-04-15T09:29:37;13.52;;;7.25;;
45318;SDS011;31057;48.498;32.260;2023-04-15T10:15:02;17.38;;;9.90;;
45318;SDS011;31057;48.498;32.260;2023-04-15T10:17:05;18.80;;;10.75;;
45318;SDS011;31057;48.498;32.260;2023-04-15T10:19:11;19.48;;;11.68;;
45318;SDS011;31057;48.498;32.260;2023-04-15T10:21:14;14.93;;;10.05;;
45318;SDS011;31057;48.498;32.260;2023-04-15T10:23:19;14.00;;;9.57;;
45318;SDS011;31057;48.498;32.260;2023-04-15T10:25:23;12.82;;;8.13;;
45318;SDS011;31057;48.498;32.260;2023-04-15T10:27:27;15.18;;;10.00;;
45318;SDS011;31057;48.498;32.260;2023-04-15T10:29:29;14.63;;;10.18;;
45318;SDS011;31057;48.498;32.260;2023-04-15T10:33:33;9.02;;;7.05;;
45318;SDS011;31057;48.498;32.260;2023-04-15T10:35:36;8.07;;;6.18;;
45318;SDS011;31057;48.498;32.260;2023-04-15T10:37:39;6.43;;;5.57;;
45318;SDS011;31057;48.498;32.260;2023-04-15T10:41:44;9.45;;;6.65;;
45318;SDS011;31057;48.498;32.260;2023-04-15T10:46:03;12.25;;;7.22;;
45318;SDS011;31057;48.498;32.260;2023-04-15T10:48:06;7.20;;;5.13;;
45318;SDS011;31057;48.498;32.260;2023-04-15T10:50:09;6.22;;;5.63;;
45318;SDS011;31057;48.498;32.260;2023-04-15T10:52:11;8.15;;;6.88;;
45318;SDS011;31057;48.498;32.260;2023-04-15T10:54:15;9.88;;;4.85;;
45318;SDS011;31057;48.498;32.260;2023-04-15T10:56:27;9.23;;;6.60;;
45318;SDS011;31057;48.498;32.260;2023-04-15T10:58:40;8.98;;;6.82;;
45318;SDS011;31057;48.498;32.260;2023-04-15T11:00:43;8.27;;;6.50;;
45318;SDS011;31057;48.498;32.260;2023-04-15T11:02:54;9.25;;;4.32;;
45318;SDS011;31057;48.498;32.260;2023-04-15T11:04:58;6.75;;;5.40;;
45318;SDS011;31057;48.498;32.260;2023-04-15T11:07:05;8.73;;;6.30;;
45318;SDS011;31057;48.498;32.260;2023-04-15T11:09:07;5.10;;;4.60;;
45318;SDS011;31057;48.498;32.260;2023-04-15T11:14:14;10.32;;;7.70;;
45318;SDS011;31057;48.498;32.260;2023-04-15T11:16:17;6.20;;;5.35;;
45318;SDS011;31057;48.498;32.260;2023-04-15T11:20:22;7.57;;;6.25;;
45318;SDS011;31057;48.498;32.260;2023-04-15T11:22:25;9.55;;;6.53;;
45318;SDS011;31057;48.498;32.260;2023-04-15T11:24:27;10.50;;;5.57;;
45318;SDS011;31057;48.498;32.260;2023-04-15T11:26:29;6.43;;;4.43;;
45318;SDS011;31057;48.498;32.260;2023-04-15T11:28:32;5.70;;;4.80;;
45318;SDS011;31057;48.498;32.260;2023-04-15T11:30:35;11.70;;;6.30;;
45318;SDS011;31057;48.498;32.260;2023-04-15T11:32:40;6.65;;;5.75;;
45318;SDS011;31057;48.498;32.260;2023-04-15T11:34:44;7.35;;;5.20;;
45318;SDS011;31057;48.498;32.260;2023-04-15T11:36:46;6.53;;;5.40;;
45318;SDS011;31057;48.498;32.260;2023-04-15T11:38:49;7.72;;;4.95;;
45318;SDS011;31057;48.498;32.260;2023-04-15T11:40:52;8.07;;;6.80;;
45318;SDS011;31057;48.498;32.260;2023-04-15T11:45:14;12.25;;;6.97;;
45318;SDS011;31057;48.498;32.260;2023-04-15T11:47:23;9.38;;;6.07;;
45318;SDS011;31057;48.498;32.260;2023-04-15T11:49:25;9.35;;;6.70;;
45318;SDS011;31057;48.498;32.260;2023-04-15T11:51:32;7.65;;;6.07;;
45318;SDS011;31057;48.498;32.260;2023-04-15T11:55:47;8.25;;;6.32;;
45318;SDS011;31057;48.498;32.260;2023-04-15T12:00:16;8.02;;;6.22;;
45318;SDS011;31057;48.498;32.260;2023-04-15T12:02:21;8.75;;;5.90;;
45318;SDS011;31057;48.498;32.260;2023-04-15T12:04:32;9.02;;;7.03;;
45318;SDS011;31057;48.498;32.260;2023-04-15T12:06:35;9.75;;;6.20;;
45318;SDS011;31057;48.498;32.260;2023-04-15T12:08:49;9.75;;;7.60;;
45318;SDS011;31057;48.498;32.260;2023-04-15T12:10:51;10.15;;;8.45;;
45318;SDS011;31057;48.498;32.260;2023-04-15T12:12:59;10.63;;;8.05;;
45318;SDS011;31057;48.498;32.260;2023-04-15T12:15:01;17.83;;;8.45;;
45318;SDS011;31057;48.498;32.260;2023-04-15T12:19:08;8.85;;;6.70;;
45318;SDS011;31057;48.498;32.260;2023-04-15T12:21:12;10.43;;;7.28;;
45318;SDS011;31057;48.498;32.260;2023-04-15T12:23:17;14.85;;;7.40;;
45318;SDS011;31057;48.498;32.260;2023-04-15T12:25:31;8.95;;;7.57;;
45318;SDS011;31057;48.498;32.260;2023-04-15T12:27:34;10.93;;;8.45;;
45318;SDS011;31057;48.498;32.260;2023-04-15T12:29:37;9.68;;;7.10;;
45318;SDS011;31057;48.498;32.260;2023-04-15T12:34:08;10.85;;;6.75;;
45318;SDS011;31057;48.498;32.260;2023-04-15T12:38:12;9.13;;;7.38;;
45318;SDS011;31057;48.498;32.260;2023-04-15T12:40:14;8.35;;;7.55;;
45318;SDS011;31057;48.498;32.260;2023-04-15T12:42:16;11.73;;;8.23;;
45318;SDS011;31057;48.498;32.260;2023-04-15T12:44:20;11.63;;;8.30;;
45318;SDS011;31057;48.498;32.260;2023-04-15T12:46:24;11.20;;;9.65;;
45318;SDS011;31057;48.498;32.260;2023-04-15T12:48:27;9.68;;;8.23;;
45318;SDS011;31057;48.498;32.260;2023-04-15T12:50:29;14.52;;;11.35;;
45318;SDS011;31057;48.498;32.260;2023-04-15T12:52:31;12.93;;;10.27;;
45318;SDS011;31057;48.498;32.260;2023-04-15T12:54:33;21.65;;;13.48;;
45318;SDS011;31057;48.498;32.260;2023-04-15T12:56:36;17.52;;;11.25;;
45318;SDS011;31057;48.498;32.260;2023-04-15T12:58:38;15.60;;;11.18;;
45318;SDS011;31057;48.498;32.260;2023-04-15T13:00:40;17.52;;;13.18;;
45318;SDS011;31057;48.498;32.260;2023-04-15T13:02:42;15.68;;;12.18;;
45318;SDS011;31057;48.498;32.260;2023-04-15T13:04:45;23.38;;;15.35;;
45318;SDS011;31057;48.498;32.260;2023-04-15T13:08:49;22.00;;;15.02;;
45318;SDS011;31057;48.498;32.260;2023-04-15T13:10:59;20.98;;;16.48;;
45318;SDS011;31057;48.498;32.260;2023-04-15T13:13:01;25.02;;;18.92;;
45318;SDS011;31057;48.498;32.260;2023-04-15T13:15:03;24.20;;;18.33;;
45318;SDS011;31057;48.498;32.260;2023-04-15T13:17:06;21.13;;;18.45;;
45318;SDS011;31057;48.498;32.260;2023-04-15T13:19:10;22.23;;;17.40;;
45318;SDS011;31057;48.498;32.260;2023-04-15T13:21:12;22.80;;;18.50;;
45318;SDS011;31057;48.498;32.260;2023-04-15T13:25:16;26.10;;;20.42;;
45318;SDS011;31057;48.498;32.260;2023-04-15T13:27:18;22.00;;;18.98;;
45318;SDS011;31057;48.498;32.260;2023-04-15T13:29:20;22.42;;;18.33;;
45318;SDS011;31057;48.498;32.260;2023-04-15T13:31:22;22.70;;;18.50;;
45318;SDS011;31057;48.498;32.260;2023-04-15T13:33:24;20.25;;;18.00;;
45318;SDS011;31057;48.498;32.260;2023-04-15T13:35:26;22.73;;;18.80;;
45318;SDS011;31057;48.498;32.260;2023-04-15T13:37:29;25.08;;;18.25;;
45318;SDS011;31057;48.498;32.260;2023-04-15T13:39:31;24.55;;;20.33;;
45318;SDS011;31057;48.498;32.260;2023-04-15T13:41:33;23.25;;;19.15;;
45318;SDS011;31057;48.498;32.260;2023-04-15T13:43:35;22.10;;;18.55;;
45318;SDS011;31057;48.498;32.260;2023-04-15T13:45:37;23.92;;;17.92;;
45318;SDS011;31057;48.498;32.260;2023-04-15T13:47:39;25.45;;;20.40;;
45318;SDS011;31057;48.498;32.260;2023-04-15T13:49:42;24.02;;;18.63;;
45318;SDS011;31057;48.498;32.260;2023-04-15T13:51:44;24.48;;;20.45;;
45318;SDS011;31057;48.498;32.260;2023-04-15T13:53:46;23.17;;;20.52;;
45318;SDS011;31057;48.498;32.260;2023-04-15T13:55:48;23.77;;;20.63;;
45318;SDS011;31057;48.498;32.260;2023-04-15T13:57:50;22.98;;;20.48;;
45318;SDS011;31057;48.498;32.260;2023-04-15T14:01:53;22.47;;;17.73;;
45318;SDS011;31057;48.498;32.260;2023-04-15T14:05:58;25.02;;;21.50;;
45318;SDS011;31057;48.498;32.260;2023-04-15T14:08:00;30.85;;;21.73;;
45318;SDS011;31057;48.498;32.260;2023-04-15T14:10:02;27.25;;;21.35;;
45318;SDS011;31057;48.498;32.260;2023-04-15T14:12:04;27.48;;;23.27;;
45318;SDS011;31057;48.498;32.260;2023-04-15T14:14:06;27.23;;;20.80;;
45318;SDS011;31057;48.498;32.260;2023-04-15T14:16:08;25.30;;;21.58;;
45318;SDS011;31057;48.498;32.260;2023-04-15T14:18:10;25.02;;;21.23;;
45318;SDS011;31057;48.498;32.260;2023-04-15T14:20:12;25.35;;;20.02;;
45318;SDS011;31057;48.498;32.260;2023-04-15T14:22:17;23.95;;;20.75;;